Flight Track Log - Related Links

Times and Time Zones

All times are in EDT time to prevent confusion due to time zone crossing. See the EJA933 flight status page for this flight to view local times or setup timezone preferences in your user account.

Time Position Orientation Groundspeed Altitude Reporting Facility
EDT Latitude Longitude Course Direction KTS MPH feet Rate Location/Type
Wed 05:53:11 PM 34.0500 -117.6333 270° West 199 229 2,600  Level Southern California TRACON
Wed 05:54:11 PM 34.0500 -117.7167 270° West 273 314 5,200 2,156 Climbing Southern California TRACON
Wed 05:56:23 PM 34.1522 -117.8719 309° West 277 319 9,500 1,877 Climbing Los Angeles Center
Wed 05:57:26 PM 34.2100 -117.9356 318° Northwest 282 325 11,300 2,016 Climbing Los Angeles Center
Wed 05:58:28 PM 34.2942 -117.8772 30° Northeast 330 380 13,700 2,032 Climbing Los Angeles Center
Wed 05:59:30 PM 34.3453 -117.7831 57° Northeast 336 387 15,500 1,597 Climbing Los Angeles Center
Wed 06:00:32 PM 34.4033 -117.6717 58° Northeast 369 425 17,000 1,306 Climbing Los Angeles Center
Wed 06:01:34 PM 34.4611 -117.5581 58° Northeast 399 459 18,200 1,210 Climbing Los Angeles Center
Wed 06:02:36 PM 34.5206 -117.4403 58° Northeast 414 476 19,500 1,210 Climbing Los Angeles Center
Wed 06:03:38 PM 34.5833 -117.3183 58° Northeast 425 489 20,700 1,113 Climbing Los Angeles Center
Wed 06:04:40 PM 34.6483 -117.1922 58° Northeast 439 505 21,800 1,355 Climbing Los Angeles Center
Wed 06:05:42 PM 34.7286 -117.0367 58° Northeast 454 522 23,500 1,500 Climbing Los Angeles Center
Wed 06:06:44 PM 34.7950 -116.9033 59° Northeast 463 533 24,900 1,344 Climbing Los Angeles Center
Wed 06:07:47 PM 34.8639 -116.7675 58° Northeast 472 543 26,300 1,344 Climbing Los Angeles Center
Wed 06:08:49 PM 34.9347 -116.6303 58° Northeast 481 554 27,700 1,368 Climbing Los Angeles Center
Wed 06:10:03 PM 35.0389 -116.4792 50° Northeast 483 556 29,400 1,456 Climbing Los Angeles Center
Wed 06:11:05 PM 35.1542 -116.3356 46° Northeast 492 566 31,000 1,452 Climbing Los Angeles Center
Wed 06:12:07 PM 35.2539 -116.2117 45° Northeast 503 579 32,400 1,210 Climbing Los Angeles Center
Wed 06:13:09 PM 35.3536 -116.0828 46° Northeast 517 595 33,500 1,113 Climbing Los Angeles Center
Wed 06:14:11 PM 35.4569 -115.9528 46° Northeast 530 610 34,700 1,065 Climbing Los Angeles Center
Wed 06:15:13 PM 35.5664 -115.8200 45° Northeast 537 618 35,700 1,065 Climbing Los Angeles Center
Wed 06:16:15 PM 35.6942 -115.6583 46° Northeast 547 629 36,900 1,056 Climbing Los Angeles Center
Wed 06:17:18 PM 35.8011 -115.5197 46° Northeast 557 641 37,900 960 Climbing Los Angeles Center
Wed 06:18:20 PM 35.9075 -115.3828 46° Northeast 558 642 38,900 968 Climbing Los Angeles Center
Wed 06:19:22 PM 36.0117 -115.2442 47° Northeast 558 642 39,900 871 Climbing Los Angeles Center
Wed 06:20:24 PM 36.1164 -115.1100 46° Northeast 552 635 40,700 532 Climbing Los Angeles Center
Wed 06:21:26 PM 36.2458 -114.9486 45° Northeast 556 640 41,000 145 Climbing Los Angeles Center
Wed 06:22:28 PM 36.3547 -114.8094 46° Northeast 564 649 41,000  Level Los Angeles Center
Wed 06:23:30 PM 36.4628 -114.6689 46° Northeast 566 651 41,000  Level Los Angeles Center
Wed 06:24:32 PM 36.5714 -114.5250 47° Northeast 571 657 41,000  Level Los Angeles Center
Wed 06:25:34 PM 36.6817 -114.3825 46° Northeast 573 659 41,000  Level Los Angeles Center
Wed 06:26:36 PM 36.7856 -114.2297 50° Northeast 578 665 41,000  Level Los Angeles Center
Wed 06:27:38 PM 36.8847 -114.0186 60° Northeast 586 674 41,000  Level Los Angeles Center
Wed 06:28:40 PM 36.9736 -113.8353 59° Northeast 588 677 41,000  Level Los Angeles Center
Wed 06:29:42 PM 37.0561 -113.6594 60° Northeast 588 677 41,000  Level Los Angeles Center
Wed 06:30:44 PM 37.1403 -113.4842 59° Northeast 588 677 41,000  Level Los Angeles Center
Wed 06:31:46 PM 37.2231 -113.3083 59° Northeast 588 677 41,000  Level Los Angeles Center
Wed 06:32:48 PM 37.3053 -113.1317 60° Northeast 589 678 41,000  Level Los Angeles Center
Wed 06:33:49 PM 37.3714 -112.9908 59° Northeast 590 679 41,000  Level Los Angeles Center
Wed 06:34:52 PM 37.4844 -112.7481 60° Northeast 590 679 41,000  Level Los Angeles Center
Wed 06:35:54 PM 37.5656 -112.5728 60° Northeast 593 682 41,000  Level Los Angeles Center
Wed 06:36:58 PM 37.6472 -112.3964 60° Northeast 591 680 41,000  Level Salt Lake Center
Wed 06:38:00 PM 37.7819 -112.2253 45° Northeast 579 666 41,000  Level Salt Lake Center
Wed 06:39:01 PM 37.9156 -112.1128 34° Northeast 579 666 41,000  Level Salt Lake Center
Wed 06:40:03 PM 38.0469 -111.9992 34° Northeast 575 662 41,000  Level Salt Lake Center
Wed 06:41:05 PM 38.1797 -111.8869 34° Northeast 576 663 41,000  Level Salt Lake Center
Wed 06:42:07 PM 38.3117 -111.7733 34° Northeast 574 661 41,000  Level Salt Lake Center
Wed 06:43:09 PM 38.4436 -111.6575 35° Northeast 576 663 41,000  Level Salt Lake Center
Wed 06:44:11 PM 38.6025 -111.5189 34° Northeast 576 663 41,000  Level Salt Lake Center
Wed 06:45:12 PM 38.7339 -111.4058 34° Northeast 572 658 41,000  Level Salt Lake Center
Wed 06:46:14 PM 38.8658 -111.2875 35° Northeast 578 665 41,000  Level Salt Lake Center
Wed 06:47:16 PM 39.0036 -111.1650 35° Northeast 579 666 41,000  Level Salt Lake Center
Wed 06:48:18 PM 39.1294 -111.0517 35° Northeast 575 662 41,000  Level Salt Lake Center
Wed 06:49:20 PM 39.2767 -110.9219 34° Northeast 574 661 41,000  Level Salt Lake Center
Wed 06:50:22 PM 39.4003 -110.8106 35° Northeast 568 654 41,000  Level Salt Lake Center
Wed 06:51:23 PM 39.5453 -110.6803 35° Northeast 567 652 41,000  Level Salt Lake Center
Wed 06:52:25 PM 39.6689 -110.5672 35° Northeast 566 651 41,000  Level Salt Lake Center
Wed 06:53:27 PM 39.7925 -110.4550 35° Northeast 566 651 41,000  Level Salt Lake Center
Wed 06:54:29 PM 39.9369 -110.3233 35° Northeast 565 650 41,000  Level Salt Lake Center
Wed 06:55:31 PM 40.0600 -110.2097 35° Northeast 564 649 41,000  Level Salt Lake Center
Wed 06:56:32 PM 40.1942 -110.0594 41° Northeast 568 654 41,000  Level Salt Lake Center
Wed 06:57:34 PM 40.2911 -109.9111 49° Northeast 561 646 41,000 462 Level Salt Lake Center
Wed 06:59:08 PM 40.4492 -109.6675 50° Northeast 547 629 42,200 774 Climbing Denver Center
Wed 06:59:38 PM 40.4956 -109.5969 49° Northeast 544 626 42,600 522 Climbing Salt Lake Center
Wed 07:00:40 PM 40.5889 -109.4525 50° Northeast 541 623 43,000 195 Climbing Salt Lake Center
Wed 07:01:41 PM 40.6994 -109.2811 50° Northeast 547 629 43,000  Level Salt Lake Center
Wed 07:02:43 PM 40.8017 -109.1186 50° Northeast 563 648 43,000  Level Salt Lake Center
Wed 07:03:45 PM 40.8972 -108.9667 50° Northeast 566 651 43,000 48 Level Salt Lake Center
Wed 07:04:47 PM 41.0100 -108.7889 50° Northeast 569 655 43,100 48 Climbing Salt Lake Center
Wed 07:05:49 PM 41.1044 -108.6378 50° Northeast 563 648 43,100 -49 Level Salt Lake Center
Wed 07:06:50 PM 41.2150 -108.4628 50° Northeast 561 646 43,000 -56 Descending Salt Lake Center
Wed 07:07:37 PM 41.2925 -108.3364 51° Northeast 555 639 43,000  Level Denver Center
Wed 07:08:39 PM 41.3864 -108.1847 50° Northeast 557 641 43,000  Level Denver Center
Wed 07:09:41 PM 41.4978 -108.0047 50° Northeast 562 647 43,000  Level Denver Center
Wed 07:10:43 PM 41.5931 -107.8481 51° Northeast 567 652 43,000  Level Denver Center
Wed 07:11:45 PM 41.7042 -107.6667 51° Northeast 567 652 43,000  Level Denver Center
Wed 07:12:47 PM 41.7956 -107.5083 52° Northeast 563 648 43,000  Level Denver Center
Wed 07:13:49 PM 41.8936 -107.3186 55° Northeast 557 641 43,000  Level Denver Center
Wed 07:14:51 PM 41.9781 -107.1558 55° Northeast 557 641 43,000  Level Denver Center
Wed 07:15:53 PM 42.0483 -107.0217 55° Northeast 552 635 43,000  Level Denver Center
Wed 07:16:55 PM 42.1594 -106.8042 55° Northeast 552 635 43,000  Level Denver Center
Wed 07:17:58 PM 42.2558 -106.6133 56° Northeast 552 635 43,000  Level Denver Center
Wed 07:19:00 PM 42.3425 -106.4456 55° Northeast 552 635 43,000  Level Denver Center
Wed 07:20:02 PM 42.4242 -106.2825 56° Northeast 548 631 43,000  Level Denver Center
Wed 07:21:04 PM 42.5192 -106.0894 56° Northeast 551 634 43,000  Level Denver Center
Wed 07:22:06 PM 42.6011 -105.9258 56° Northeast 547 629 43,000  Level Denver Center
Wed 07:23:08 PM 42.6939 -105.7356 56° Northeast 539 620 43,000  Level Denver Center
Wed 07:24:10 PM 42.7733 -105.5753 56° Northeast 534 615 43,000  Level Denver Center
Wed 07:25:12 PM 42.8661 -105.3867 56° Northeast 534 615 43,000  Level Denver Center
Wed 07:26:14 PM 42.9444 -105.2244 57° Northeast 533 613 43,000  Level Denver Center
Wed 07:27:16 PM 43.0369 -105.0347 56° Northeast 534 615 43,000  Level Denver Center
Wed 07:28:18 PM 43.1142 -104.8711 57° Northeast 533 613 43,000  Level Denver Center
Wed 07:29:20 PM 43.1939 -104.7053 57° Northeast 536 617 43,000  Level Denver Center
Wed 07:30:22 PM 43.2861 -104.5094 57° Northeast 541 623 43,000  Level Denver Center
Wed 07:31:24 PM 43.3647 -104.3411 57° Northeast 543 625 43,000  Level Denver Center
Wed 07:32:27 PM 43.4569 -104.1433 57° Northeast 546 628 43,000  Level Denver Center
Wed 07:33:29 PM 43.5369 -103.9761 57° Northeast 546 628 43,000  Level Denver Center
Wed 07:34:31 PM 43.6286 -103.7794 57° Northeast 545 627 43,000  Level Denver Center
Wed 07:35:33 PM 43.7067 -103.6089 58° Northeast 548 631 43,000  Level Denver Center
Wed 07:36:35 PM 43.7981 -103.4097 58° Northeast 549 632 43,000  Level Denver Center
Wed 07:37:37 PM 43.8764 -103.2369 58° Northeast 551 634 43,000  Level Denver Center
Wed 07:38:39 PM 43.9658 -103.0372 58° Northeast 548 631 43,000  Level Denver Center
Wed 07:39:41 PM 44.0333 -102.8581 62° Northeast 546 628 43,000  Level Denver Center
Wed 07:40:43 PM 44.0908 -102.6775 66° East 546 628 43,000  Level Denver Center
Wed 07:41:45 PM 44.1683 -102.4442 65° Northeast 551 634 43,000  Level Denver Center
Wed 07:42:47 PM 44.2297 -102.2497 66° East 550 633 43,000  Level Denver Center
Wed 07:43:49 PM 44.2933 -102.0569 65° Northeast 548 631 43,000  Level Denver Center
Wed 07:44:51 PM 44.3578 -101.8661 65° Northeast 545 627 43,000  Level Denver Center
Wed 07:45:53 PM 44.4183 -101.6719 66° East 545 627 43,000  Level Denver Center
Wed 07:46:55 PM 44.4792 -101.4811 66° East 540 621 43,000  Level Denver Center
Wed 07:47:36 PM 44.5278 -101.3272 66° East 542 624 43,000  Level Minneapolis Center
Wed 07:48:38 PM 44.5900 -101.1342 66° East 543 625 43,000  Level Minneapolis Center
Wed 07:49:40 PM 44.6508 -100.9422 66° East 542 624 43,000  Level Minneapolis Center
Wed 07:50:43 PM 44.7106 -100.7481 67° East 542 624 43,000  Level Minneapolis Center
Wed 07:51:45 PM 44.7700 -100.5550 66° East 540 621 43,000  Level Minneapolis Center
Wed 07:52:47 PM 44.8419 -100.3214 66° East 543 625 43,000  Level Minneapolis Center
Wed 07:53:49 PM 44.9014 -100.1264 67° East 545 627 43,000  Level Minneapolis Center
Wed 07:54:51 PM 44.9619 -99.9214 67° East 547 629 43,000  Level Minneapolis Center
Wed 07:55:53 PM 45.0164 -99.7408 67° East 552 635 43,000  Level Minneapolis Center
Wed 07:56:55 PM 45.0878 -99.5069 67° East 547 629 43,000  Level Minneapolis Center
Wed 07:57:57 PM 45.1458 -99.3114 67° East 544 626 43,000  Level Minneapolis Center
Wed 07:58:59 PM 45.2033 -99.1158 67° East 540 621 43,000  Level Minneapolis Center
Wed 08:00:05 PM 45.2722 -98.8825 67° East 537 618 43,000  Level Minneapolis Center
Wed 08:01:07 PM 45.3272 -98.6883 68° East 533 613 43,000  Level Minneapolis Center
Wed 08:02:09 PM 45.3831 -98.4922 68° East 534 615 43,000 -290 Level Minneapolis Center
Wed 08:03:11 PM 45.4233 -98.2864 74° East 542 624 42,400 -960 Descending Minneapolis Center
Wed 08:04:14 PM 45.4339 -98.0475 86° East 543 625 41,000 -672 Descending Minneapolis Center
Wed 08:05:16 PM 45.4442 -97.8333 86° East 543 625 41,000  Level Minneapolis Center
Wed 08:06:18 PM 45.4522 -97.6200 87° East 541 623 41,000  Level Minneapolis Center
Wed 08:07:20 PM 45.4614 -97.4078 86° East 538 619 41,000  Level Minneapolis Center
Wed 08:08:22 PM 45.4692 -97.1961 87° East 537 618 41,000  Level Minneapolis Center
Wed 08:09:24 PM 45.4769 -96.9850 87° East 535 616 41,000 -919 Level Minneapolis Center
Wed 08:10:26 PM 45.4853 -96.7336 87° East 531 611 39,100 -2,274 Descending Minneapolis Center
Wed 08:11:28 PM 45.4936 -96.5336 87° East 511 588 36,300 -2,710 Descending Minneapolis Center
Wed 08:12:30 PM 45.4978 -96.3425 88° East 489 563 33,500 -2,806 Descending Minneapolis Center
Wed 08:13:32 PM 45.5042 -96.1322 87° East 521 600 30,500 -2,903 Descending Minneapolis Center
Wed 08:14:34 PM 45.5111 -95.9233 87° East 527 606 27,500 -2,855 Descending Minneapolis Center
Wed 08:15:36 PM 45.5158 -95.7150 88° East 526 605 24,600 -3,000 Descending Minneapolis Center
Wed 08:16:38 PM 45.5217 -95.4822 88° East 496 571 21,300 -2,880 Descending Minneapolis Center
Wed 08:17:41 PM 45.5264 -95.2908 88° East 486 559 18,600 -2,544 Descending Minneapolis Center
Wed 08:18:43 PM 45.5297 -95.1117 88° East 462 532 16,000 -2,565 Descending Minneapolis Center
Wed 08:19:45 PM 45.5336 -94.9256 88° East 451 519 13,300 -3,000 Descending Minneapolis Center
Wed 08:20:47 PM 45.5364 -94.7753 88° East 392 451 9,800 -3,000 Descending Minneapolis Center
Wed 08:21:49 PM 45.5419 -94.6514 86° East 331 381 7,100 -2,081 Descending Minneapolis Center
Wed 08:22:51 PM 45.5508 -94.5319 84° East 310 357 5,500 -1,355 Descending Minneapolis Center
Wed 08:23:53 PM 45.5717 -94.4242 75° East 294 338 4,300 -1,065 Descending Minneapolis Center
Wed 08:24:55 PM 45.5883 -94.3181 77° East 258 297 3,300 -613 Descending Minneapolis Center
Wed 08:26:10 PM 45.5978 -94.2167 82° East 234 269 2,900 -307 Descending Minneapolis Center
Wed 08:27:12 PM 45.6014 -94.1467 86° East 225 259 2,600 -290 Descending Minneapolis Center

Login

Don't have an account? Register now (free) for customized features, flight alerts, and more!